createdAt,value
2023-06-25T00:03:24.431Z,10.76
2023-06-25T00:08:24.652Z,10.40
2023-06-25T00:13:21.929Z,10.68
2023-06-25T00:18:21.195Z,10.12
2023-06-25T00:23:21.456Z,10.68
2023-06-25T00:28:19.714Z,10.76
2023-06-25T00:33:18.974Z,10.79
2023-06-25T00:38:20.269Z,10.79
2023-06-25T00:43:17.506Z,11.40
2023-06-25T00:48:17.739Z,10.48
2023-06-25T00:53:16.984Z,10.47
2023-06-25T00:58:16.217Z,10.76
2023-06-25T01:03:15.543Z,10.40
2023-06-25T01:08:13.600Z,10.68
2023-06-25T01:13:12.870Z,10.12
2023-06-25T01:18:13.093Z,11.05
2023-06-25T01:23:12.358Z,11.05
2023-06-25T01:28:10.603Z,10.68
2023-06-25T01:33:10.843Z,10.95
2023-06-25T01:38:09.089Z,10.68
2023-06-25T01:43:08.334Z,10.28
2023-06-25T01:48:07.604Z,10.28
2023-06-25T01:53:06.887Z,10.28
2023-06-25T01:58:06.128Z,10.02
2023-06-25T02:03:07.528Z,10.55
2023-06-25T02:08:06.610Z,10.80
2023-06-25T02:13:05.885Z,10.80
2023-06-25T02:18:04.172Z,10.11
2023-06-25T02:23:02.462Z,10.80
2023-06-25T02:28:02.723Z,10.11
2023-06-25T02:33:02.006Z,10.80
2023-06-25T02:38:01.359Z,10.36
2023-06-25T02:42:58.577Z,10.36
2023-06-25T02:47:58.906Z,10.61
2023-06-25T02:52:57.154Z,10.61
2023-06-25T02:57:57.425Z,10.36
2023-06-25T03:02:57.710Z,10.61
2023-06-25T03:07:55.977Z,10.61
2023-06-25T03:12:56.224Z,10.85
2023-06-25T03:17:55.492Z,10.14
2023-06-25T03:22:53.755Z,10.14
2023-06-25T03:27:52.983Z,10.61
2023-06-25T03:32:52.308Z,10.61
2023-06-25T03:37:53.522Z,10.36
2023-06-25T03:42:51.775Z,10.61
2023-06-25T03:47:50.131Z,9.90
2023-06-25T03:52:50.409Z,10.61
2023-06-25T03:57:48.660Z,9.90
2023-06-25T04:02:49.952Z,10.85
2023-06-25T04:07:47.152Z,10.61
2023-06-25T04:12:46.377Z,10.61
2023-06-25T04:17:45.680Z,10.61
2023-06-25T04:22:44.954Z,10.61
2023-06-25T04:27:45.175Z,10.61
2023-06-25T04:32:45.408Z,10.61
2023-06-25T04:37:42.618Z,10.61
2023-06-25T04:42:41.846Z,10.36
2023-06-25T04:47:41.216Z,10.61
2023-06-25T04:52:40.433Z,10.36
2023-06-25T04:57:40.729Z,10.36
2023-06-25T05:02:39.093Z,10.80
2023-06-25T05:07:39.305Z,11.30
2023-06-25T05:12:38.588Z,11.06
2023-06-25T05:17:36.932Z,10.80
2023-06-25T05:22:38.173Z,10.80
2023-06-25T05:27:35.413Z,10.55
2023-06-25T05:32:34.689Z,11.06
2023-06-25T05:37:34.972Z,10.55
2023-06-25T05:42:33.218Z,10.80
2023-06-25T05:47:32.484Z,11.48
2023-06-25T05:52:32.669Z,10.95
2023-06-25T05:57:31.890Z,10.95
2023-06-25T06:02:30.144Z,10.40
2023-06-25T06:07:29.470Z,10.95
2023-06-25T06:12:29.711Z,11.33
2023-06-25T06:17:29.047Z,11.61
2023-06-25T06:22:29.314Z,11.33
2023-06-25T06:27:27.609Z,11.05
2023-06-25T06:32:25.897Z,11.61
2023-06-25T06:37:28.129Z,11.05
2023-06-25T06:42:25.485Z,10.76
2023-06-25T06:47:23.738Z,11.39
2023-06-25T06:52:22.939Z,11.39
2023-06-25T06:57:22.212Z,10.79
2023-06-25T07:02:22.507Z,10.47
2023-06-25T07:07:21.833Z,10.79
2023-06-25T07:12:20.080Z,11.09
2023-06-25T07:17:21.329Z,10.79
2023-06-25T07:22:18.559Z,11.39
2023-06-25T07:27:17.793Z,11.71
2023-06-25T07:32:19.042Z,11.71
2023-06-25T07:37:17.275Z,11.71
2023-06-25T07:42:15.500Z,11.09
2023-06-25T07:47:14.723Z,11.71
2023-06-25T07:52:13.927Z,11.09
2023-06-25T07:57:13.182Z,11.71
2023-06-25T08:02:12.439Z,11.71
2023-06-25T08:07:13.744Z,11.71
2023-06-25T08:12:11.953Z,11.40
2023-06-25T08:17:10.207Z,11.40
2023-06-25T08:22:10.612Z,11.71
2023-06-25T08:27:08.691Z,11.40
2023-06-25T08:32:09.991Z,11.40
2023-06-25T08:37:09.215Z,11.40
2023-06-25T08:42:07.457Z,11.40
2023-06-25T08:47:06.918Z,12.31
2023-06-25T08:52:04.955Z,11.99
2023-06-25T08:57:05.221Z,12.31
2023-06-25T09:02:04.485Z,11.99
2023-06-25T09:07:04.641Z,11.99
2023-06-25T09:12:02.883Z,11.99
2023-06-25T09:17:02.115Z,11.66
2023-06-25T09:21:59.405Z,11.66
2023-06-25T09:26:59.636Z,11.66
2023-06-25T09:31:59.888Z,11.66
2023-06-25T09:36:59.120Z,11.66
2023-06-25T09:41:57.322Z,11.66
2023-06-25T09:46:58.570Z,11.66
2023-06-25T09:51:57.818Z,11.99
2023-06-25T09:56:55.046Z,11.66
2023-06-25T10:01:54.383Z,11.66
2023-06-25T10:06:54.716Z,11.33
2023-06-25T10:11:53.940Z,11.33
2023-06-25T10:16:52.203Z,11.33
2023-06-25T10:21:52.433Z,11.33
2023-06-25T10:26:51.660Z,10.99
2023-06-25T10:31:50.132Z,12.24
2023-06-25T10:36:51.033Z,11.90
2023-06-25T10:41:49.272Z,11.90
2023-06-25T10:46:48.514Z,12.24
2023-06-25T10:51:47.792Z,11.90
2023-06-25T10:56:48.783Z,11.90
2023-06-25T11:01:45.319Z,12.24
2023-06-25T11:06:43.601Z,12.24
2023-06-25T11:11:43.841Z,12.24
2023-06-25T11:16:43.059Z,12.24
2023-06-25T11:21:42.319Z,12.24
2023-06-25T11:26:42.557Z,12.24
2023-06-25T11:31:40.768Z,12.24
2023-06-25T11:36:41.005Z,11.90
2023-06-25T11:41:40.261Z,12.24
2023-06-25T11:46:38.485Z,11.90
2023-06-25T11:51:38.742Z,11.90
2023-06-25T11:56:38.971Z,11.55
2023-06-25T12:01:37.239Z,11.90
2023-06-25T12:06:35.473Z,11.90
2023-06-25T12:11:34.743Z,12.09
2023-06-25T12:16:33.974Z,12.45
2023-06-25T12:21:33.219Z,12.80
2023-06-25T12:26:33.435Z,11.90
2023-06-25T12:31:31.684Z,12.80
2023-06-25T12:36:31.883Z,12.80
2023-06-25T12:41:32.132Z,12.45
2023-06-25T12:46:29.356Z,12.80
2023-06-25T12:51:28.605Z,12.45
2023-06-25T12:56:28.420Z,12.09
2023-06-25T13:01:28.122Z,12.09
2023-06-25T13:06:26.360Z,12.09
2023-06-25T13:11:26.785Z,12.09
2023-06-25T13:16:24.832Z,12.45
2023-06-25T13:21:24.112Z,11.73
2023-06-25T13:26:24.362Z,11.73
2023-06-25T13:31:22.715Z,12.09
2023-06-25T13:36:22.823Z,11.73
2023-06-25T13:41:21.035Z,11.73
2023-06-25T13:46:21.364Z,11.73
2023-06-25T13:51:20.587Z,12.62
2023-06-25T13:56:19.870Z,12.09
2023-06-25T14:01:18.129Z,12.62
2023-06-25T14:06:17.370Z,11.86
2023-06-25T14:11:18.628Z,11.47
2023-06-25T14:16:16.859Z,11.86
2023-06-25T14:21:18.116Z,11.86
2023-06-25T14:26:14.390Z,11.86
2023-06-25T14:31:14.695Z,11.86
2023-06-25T14:36:11.940Z,11.47
2023-06-25T14:41:12.236Z,11.47
2023-06-25T14:46:12.547Z,11.47
2023-06-25T14:51:10.765Z,11.47
2023-06-25T14:56:10.049Z,12.36
2023-06-25T15:01:09.383Z,11.86
2023-06-25T15:06:13.492Z,12.36
2023-06-25T15:11:08.065Z,12.36
2023-06-25T15:16:07.157Z,12.36
2023-06-25T15:21:07.434Z,12.36
2023-06-25T15:26:06.707Z,12.36
2023-06-25T15:31:04.970Z,11.95
2023-06-25T15:36:04.205Z,11.95
2023-06-25T15:41:03.448Z,11.53
2023-06-25T15:46:03.761Z,11.95
2023-06-25T15:51:01.983Z,11.95
2023-06-25T15:56:01.278Z,11.95
2023-06-25T16:01:00.539Z,11.95
2023-06-25T16:05:59.759Z,11.95
2023-06-25T16:10:59.053Z,11.95
2023-06-25T16:15:58.306Z,11.95
2023-06-25T16:21:00.562Z,12.36
2023-06-25T16:25:56.833Z,11.95
2023-06-25T16:30:56.125Z,12.36
2023-06-25T16:35:56.333Z,12.83
2023-06-25T16:40:55.571Z,12.83
2023-06-25T16:45:53.956Z,12.83
2023-06-25T16:50:55.008Z,12.42
2023-06-25T16:55:53.210Z,11.99
2023-06-25T17:00:51.459Z,11.95
2023-06-25T17:05:50.709Z,11.95
2023-06-25T17:10:50.998Z,11.95
2023-06-25T17:15:49.472Z,11.95
2023-06-25T17:20:49.545Z,11.95
2023-06-25T17:25:47.788Z,11.95
2023-06-25T17:30:48.049Z,11.95
2023-06-25T17:35:46.263Z,11.95
2023-06-25T17:40:45.511Z,11.95
2023-06-25T17:45:43.835Z,11.53
2023-06-25T17:50:46.077Z,11.11
2023-06-25T17:55:43.339Z,11.95
2023-06-25T18:00:44.788Z,11.53
2023-06-25T18:05:42.897Z,11.95
2023-06-25T18:10:42.163Z,11.11
2023-06-25T18:15:40.481Z,11.95
2023-06-25T18:20:39.747Z,11.95
2023-06-25T18:25:40.045Z,10.65
2023-06-25T18:30:39.080Z,11.47
2023-06-25T18:35:38.585Z,11.86
2023-06-25T18:40:38.090Z,11.86
2023-06-25T18:45:37.172Z,11.86
2023-06-25T18:50:34.130Z,12.62
2023-06-25T18:55:35.861Z,12.80
2023-06-25T19:00:35.002Z,12.45
2023-06-25T19:05:33.917Z,11.73
2023-06-25T19:10:32.185Z,9.35
2023-06-25T19:15:31.443Z,10.58
2023-06-25T19:20:31.735Z,10.58
2023-06-25T19:25:30.985Z,9.69
2023-06-25T19:30:29.278Z,8.89
2023-06-25T19:35:29.499Z,10.08
2023-06-25T19:40:27.741Z,10.08
2023-06-25T19:45:27.011Z,10.46
2023-06-25T19:50:25.272Z,10.83
2023-06-25T19:55:25.583Z,10.65
2023-06-25T20:00:24.867Z,10.65
2023-06-25T20:05:24.184Z,12.93
2023-06-25T20:10:25.403Z,13.24
2023-06-25T20:15:22.694Z,11.33
2023-06-25T20:20:21.934Z,11.33
2023-06-25T20:25:23.190Z,11.99
2023-06-25T20:30:20.420Z,12.62
2023-06-25T20:35:21.642Z,11.71
2023-06-25T20:40:18.886Z,11.40
2023-06-25T20:45:19.114Z,11.71
2023-06-25T20:50:17.380Z,12.01
2023-06-25T20:55:18.640Z,12.32
2023-06-25T21:00:15.860Z,12.90
2023-06-25T21:05:15.124Z,12.61
2023-06-25T21:10:16.354Z,12.01
2023-06-25T21:15:13.598Z,12.32
2023-06-25T21:20:12.887Z,12.61
2023-06-25T21:25:12.111Z,12.61
2023-06-25T21:30:11.359Z,11.39
2023-06-25T21:35:10.604Z,11.98
2023-06-25T21:40:09.846Z,11.69
2023-06-25T21:45:09.084Z,11.98
2023-06-25T21:50:09.316Z,12.26
2023-06-25T21:55:08.572Z,11.69
2023-06-25T22:00:06.789Z,11.98
2023-06-25T22:05:06.021Z,11.88
2023-06-25T22:10:07.271Z,12.54
2023-06-25T22:15:05.457Z,12.82
2023-06-25T22:20:04.671Z,11.61
2023-06-25T22:25:01.874Z,12.26
2023-06-25T22:30:02.112Z,11.88
2023-06-25T22:35:01.336Z,11.88
2023-06-25T22:40:02.624Z,12.15
2023-06-25T22:44:59.846Z,11.61
2023-06-25T22:50:00.108Z,11.88
2023-06-25T22:54:58.400Z,11.88
2023-06-25T22:59:58.676Z,12.54
2023-06-25T23:04:56.912Z,12.54
2023-06-25T23:09:56.144Z,11.88
2023-06-25T23:14:55.392Z,11.88
2023-06-25T23:19:54.669Z,11.61
2023-06-25T23:24:53.955Z,12.54
2023-06-25T23:29:53.198Z,11.61
2023-06-25T23:34:52.489Z,12.26
2023-06-25T23:39:52.737Z,11.61
2023-06-25T23:44:51.979Z,11.88
2023-06-25T23:49:50.212Z,11.88
2023-06-25T23:54:50.465Z,11.88
2023-06-25T23:59:48.723Z,12.54
